Time,TemperatureF,DewpointF,PressureIn,WindDirection,WindDirectionDegrees,WindSpeedMPH,WindSpeedGustMPH,Humidity,HourlyPrecipIn,Conditions,Clouds,dailyrainin,SolarRadiationWatts/m^2,SoftwareType,DateUTC
2013-01-26 00:01:00,45.6,36.7,29.60,NNE,15,10.0,10.0,71,0.00,RA,FEW,0.00,0.0,WeatherDisplay:10.37,2013-01-25 23:01:00,
2013-01-26 00:06:00,45.5,36.3,29.60,NNE,15,8.1,8.1,70,0.00,RA,FEW,0.00,0.0,WeatherDisplay:10.37,2013-01-25 23:06:00,
2013-01-26 00:11:00,45.6,36.7,29.59,NNE,31,9.2,9.2,71,0.00,RA,FEW,0.00,0.0,WeatherDisplay:10.37,2013-01-25 23:11:00,
2013-01-26 00:16:00,45.7,36.5,29.59,NE,56,7.0,7.0,70,0.00,CLR,FEW,0.00,0.0,WeatherDisplay:10.37,2013-01-25 23:16:00,
2013-01-26 00:21:00,45.8,36.6,29.59,NE,43,8.1,8.1,70,0.00,CLR,FEW,0.00,0.0,WeatherDisplay:10.37,2013-01-25 23:21:00,
2013-01-26 00:26:00,46.0,36.8,29.59,ENE,65,15.0,15.0,70,0.00,CLR,FEW,0.00,0.0,WeatherDisplay:10.37,2013-01-25 23:26:00,
2013-01-26 00:31:00,46.1,36.5,29.60,NNE,17,11.5,11.5,69,0.00,CLR,FEW,0.00,0.0,WeatherDisplay:10.37,2013-01-25 23:31:00,
2013-01-26 00:36:00,46.0,36.0,29.59,ENE,59,8.1,8.1,68,0.00,CLR,FEW,0.00,0.0,WeatherDisplay:10.37,2013-01-25 23:36:00,
2013-01-26 00:41:00,46.1,35.7,29.59,NE,44,15.0,15.0,67,0.00,CLR,FEW,0.00,0.0,WeatherDisplay:10.37,2013-01-25 23:41:00,
2013-01-26 00:46:00,46.0,35.7,29.59,North,355,13.8,13.8,67,0.00,CLR,FEW,0.00,0.0,WeatherDisplay:10.37,2013-01-25 23:46:00,
2013-01-26 00:51:00,46.0,35.3,29.59,ENE,63,18.4,18.4,66,0.00,CLR,FEW,0.00,0.0,WeatherDisplay:10.37,2013-01-25 23:51:00,
2013-01-26 00:56:00,45.9,35.2,29.59,NNE,32,10.4,10.4,66,0.00,CLR,FEW,0.00,0.0,WeatherDisplay:10.37,2013-01-25 23:56:00,
2013-01-26 01:01:00,45.9,35.2,29.59,NNW,348,13.8,13.8,66,0.00,CLR,FEW,0.00,0.0,WeatherDisplay:10.37,2013-01-26 00:01:00,
2013-01-26 01:06:00,45.9,34.8,29.59,NNE,17,17.3,17.3,65,0.00,CLR,FEW,0.00,0.0,WeatherDisplay:10.37,2013-01-26 00:06:00,
2013-01-26 01:11:00,45.9,35.2,29.59,NE,49,17.3,17.3,66,0.00,CLR,FEW,0.00,0.0,WeatherDisplay:10.37,2013-01-26 00:11:00,
2013-01-26 01:16:00,45.7,35.0,29.59,ENE,64,11.5,11.5,66,0.00,CLR,FEW,0.00,0.0,WeatherDisplay:10.37,2013-01-26 00:16:00,
2013-01-26 01:21:00,45.5,34.8,29.60,ENE,61,13.0,13.0,66,0.00,CLR,FEW,0.00,0.0,WeatherDisplay:10.37,2013-01-26 00:21:00,
2013-01-26 01:26:00,45.3,34.2,29.60,NE,51,18.4,18.4,65,0.00,CLR,FEW,0.00,0.0,WeatherDisplay:10.37,2013-01-26 00:26:00,
2013-01-26 01:31:00,45.3,34.6,29.60,NE,34,13.8,13.8,66,0.00,CLR,FEW,0.00,0.0,WeatherDisplay:10.37,2013-01-26 00:31:00,
2013-01-26 01:36:00,45.3,34.2,29.60,NE,42,12.7,12.7,65,0.00,CLR,FEW,0.00,0.0,WeatherDisplay:10.37,2013-01-26 00:36:00,
2013-01-26 01:41:00,45.5,33.6,29.60,NE,47,17.3,17.3,63,0.00,CLR,FEW,0.00,0.0,WeatherDisplay:10.37,2013-01-26 00:41:00,
2013-01-26 01:46:00,45.4,33.5,29.60,NNE,17,18.4,18.4,63,0.00,CLR,FEW,0.00,0.0,WeatherDisplay:10.37,2013-01-26 00:46:00,
2013-01-26 01:51:00,45.4,33.5,29.60,NE,49,15.0,15.0,63,0.00,CLR,FEW,0.00,0.0,WeatherDisplay:10.37,2013-01-26 00:51:00,
2013-01-26 01:57:00,45.3,33.4,29.60,NE,42,12.7,12.7,63,0.00,CLR,FEW,0.00,0.0,WeatherDisplay:10.37,2013-01-26 00:57:00,
2013-01-26 02:02:00,45.2,33.3,29.60,NE,51,11.5,11.5,63,0.00,CLR,FEW,0.00,0.0,WeatherDisplay:10.37,2013-01-26 01:02:00,
2013-01-26 02:07:00,45.0,32.8,29.60,NE,55,11.5,11.5,62,0.00,CLR,FEW,0.00,0.0,WeatherDisplay:10.37,2013-01-26 01:07:00,
2013-01-26 02:12:00,45.1,32.8,29.60,ENE,59,10.4,10.4,62,0.00,CLR,FEW,0.00,0.0,WeatherDisplay:10.37,2013-01-26 01:12:00,
2013-01-26 02:17:00,45.1,33.2,29.60,ENE,65,11.5,11.5,63,0.00,CLR,FEW,0.00,0.0,WeatherDisplay:10.37,2013-01-26 01:17:00,
2013-01-26 02:22:00,45.1,33.2,29.60,ENE,63,11.5,11.5,63,0.00,CLR,FEW,0.00,0.0,WeatherDisplay:10.37,2013-01-26 01:22:00,
2013-01-26 02:27:00,45.0,33.2,29.60,NE,56,4.6,4.6,63,0.00,CLR,FEW,0.00,0.0,WeatherDisplay:10.37,2013-01-26 01:27:00,
2013-01-26 02:32:00,44.8,33.0,29.60,NE,48,7.0,7.0,63,0.00,CLR,FEW,0.00,0.0,WeatherDisplay:10.37,2013-01-26 01:32:00,
2013-01-26 02:37:00,44.7,32.9,29.60,NE,55,11.5,11.5,63,0.00,CLR,FEW,0.00,0.0,WeatherDisplay:10.37,2013-01-26 01:37:00,
2013-01-26 02:42:00,44.6,32.8,29.60,NE,42,11.5,11.5,63,0.00,CLR,FEW,0.00,0.0,WeatherDisplay:10.37,2013-01-26 01:42:00,
2013-01-26 02:47:00,44.6,32.8,29.60,ENE,68,8.1,8.1,63,0.00,CLR,FEW,0.00,0.0,WeatherDisplay:10.37,2013-01-26 01:47:00,
2013-01-26 02:52:00,44.5,32.7,29.60,ENE,65,3.5,3.5,63,0.00,CLR,FEW,0.00,0.0,WeatherDisplay:10.37,2013-01-26 01:52:00,
2013-01-26 02:57:00,44.4,32.2,29.61,NE,43,6.9,6.9,62,0.00,CLR,FEW,0.00,0.0,WeatherDisplay:10.37,2013-01-26 01:57:00,
2013-01-26 03:02:00,44.3,32.5,29.61,NE,53,10.4,10.4,63,0.00,CLR,FEW,0.00,0.0,WeatherDisplay:10.37,2013-01-26 02:02:00,
2013-01-26 03:07:00,44.3,32.5,29.61,East,81,6.9,6.9,63,0.00,CLR,FEW,0.00,0.0,WeatherDisplay:10.37,2013-01-26 02:07:00,
2013-01-26 03:12:00,44.4,33.0,29.61,NNE,30,13.8,13.8,64,0.00,CLR,FEW,0.00,0.0,WeatherDisplay:10.37,2013-01-26 02:12:00,
2013-01-26 03:17:00,44.4,33.4,29.61,NE,44,9.2,9.2,65,0.00,CLR,FEW,0.00,0.0,WeatherDisplay:10.37,2013-01-26 02:17:00,
2013-01-26 03:22:00,44.3,33.3,29.61,NE,49,11.5,11.5,65,0.00,CLR,FEW,0.00,0.0,WeatherDisplay:10.37,2013-01-26 02:22:00,
2013-01-26 03:27:00,44.2,33.2,29.61,ENE,76,7.0,7.0,65,0.00,CLR,FEW,0.00,0.0,WeatherDisplay:10.37,2013-01-26 02:27:00,
2013-01-26 03:32:00,44.0,33.0,29.61,NE,39,6.9,6.9,65,0.00,CLR,FEW,0.00,0.0,WeatherDisplay:10.37,2013-01-26 02:32:00,
2013-01-26 03:37:00,43.9,33.3,29.61,ENE,61,15.0,15.0,66,0.00,CLR,FEW,0.00,0.0,WeatherDisplay:10.37,2013-01-26 02:37:00,
2013-01-26 03:42:00,43.9,32.9,29.61,NE,49,12.7,12.7,65,0.00,CLR,FEW,0.00,0.0,WeatherDisplay:10.37,2013-01-26 02:42:00,
2013-01-26 03:47:00,43.8,32.8,29.61,NE,46,15.0,15.0,65,0.00,CLR,FEW,0.00,0.0,WeatherDisplay:10.37,2013-01-26 02:47:00,
2013-01-26 03:52:00,43.9,32.9,29.61,ENE,72,13.8,13.8,65,0.00,CLR,FEW,0.00,0.0,WeatherDisplay:10.37,2013-01-26 02:52:00,
2013-01-26 03:57:00,43.8,32.8,29.61,ENE,67,11.5,11.5,65,0.00,CLR,FEW,0.00,0.0,WeatherDisplay:10.37,2013-01-26 02:57:00,
2013-01-26 04:02:00,43.7,32.7,29.61,NE,47,8.1,8.1,65,0.00,CLR,FEW,0.00,0.0,WeatherDisplay:10.37,2013-01-26 03:02:00,
2013-01-26 04:07:00,43.6,33.4,29.61,NE,52,15.0,15.0,67,0.00,CLR,FEW,0.00,0.0,WeatherDisplay:10.37,2013-01-26 03:07:00,
2013-01-26 04:12:00,43.6,33.4,29.61,ENE,61,12.0,12.0,67,0.00,CLR,FEW,0.00,0.0,WeatherDisplay:10.37,2013-01-26 03:12:00,
2013-01-26 04:17:00,43.7,33.5,29.61,NNE,30,16.1,16.1,67,0.00,CLR,FEW,0.00,0.0,WeatherDisplay:10.37,2013-01-26 03:17:00,
2013-01-26 04:22:00,43.8,33.6,29.61,ENE,60,13.8,13.8,67,0.00,CLR,FEW,0.00,0.0,WeatherDisplay:10.37,2013-01-26 03:22:00,
2013-01-26 04:27:00,43.9,33.3,29.61,ENE,71,13.8,13.8,66,0.00,CLR,FEW,0.00,0.0,WeatherDisplay:10.37,2013-01-26 03:27:00,
2013-01-26 04:32:00,43.8,33.9,29.61,NNE,17,12.7,12.7,68,0.00,CLR,FEW,0.00,0.0,WeatherDisplay:10.37,2013-01-26 03:32:00,
2013-01-26 04:37:00,43.8,34.3,29.61,ENE,69,11.5,11.5,69,0.00,CLR,FEW,0.00,0.0,WeatherDisplay:10.37,2013-01-26 03:37:00,
2013-01-26 04:42:00,43.8,34.3,29.60,ENE,71,11.5,11.5,69,0.00,CLR,FEW,0.00,0.0,WeatherDisplay:10.37,2013-01-26 03:42:00,
2013-01-26 04:47:00,43.8,34.3,29.60,ENE,78,6.9,6.9,69,0.00,CLR,FEW,0.00,0.0,WeatherDisplay:10.37,2013-01-26 03:47:00,
2013-01-26 04:52:00,43.6,34.1,29.60,NE,51,11.0,11.0,69,0.00,CLR,FEW,0.00,0.0,WeatherDisplay:10.37,2013-01-26 03:52:00,
2013-01-26 04:57:00,43.6,34.1,29.60,NE,54,8.1,8.1,69,0.00,CLR,FEW,0.00,0.0,WeatherDisplay:10.37,2013-01-26 03:57:00,
2013-01-26 05:02:00,43.5,33.6,29.60,NE,38,6.9,6.9,68,0.00,CLR,FEW,0.00,0.0,WeatherDisplay:10.37,2013-01-26 04:02:00,
2013-01-26 05:07:00,43.4,33.5,29.61,NE,35,6.0,6.0,68,0.00,CLR,FEW,0.00,0.0,WeatherDisplay:10.37,2013-01-26 04:07:00,
2013-01-26 05:12:00,43.4,33.5,29.61,NE,49,6.9,6.9,68,0.00,CLR,FEW,0.00,0.0,WeatherDisplay:10.37,2013-01-26 04:12:00,
2013-01-26 05:17:00,43.4,33.5,29.61,NE,54,4.6,4.6,68,0.00,CLR,FEW,0.00,0.0,WeatherDisplay:10.37,2013-01-26 04:17:00,
2013-01-26 05:22:00,43.3,33.4,29.61,NE,53,4.0,4.0,68,0.00,CLR,FEW,0.00,0.0,WeatherDisplay:10.37,2013-01-26 04:22:00,
2013-01-26 05:27:00,43.2,33.3,29.61,ENE,65,5.0,5.0,68,0.00,CLR,FEW,0.00,0.0,WeatherDisplay:10.37,2013-01-26 04:27:00,
2013-01-26 05:32:00,43.3,33.4,29.61,ENE,58,4.6,4.6,68,0.00,CLR,FEW,0.00,0.0,WeatherDisplay:10.37,2013-01-26 04:32:00,
2013-01-26 05:37:00,43.4,33.5,29.61,NE,53,4.6,4.6,68,0.00,CLR,FEW,0.00,0.0,WeatherDisplay:10.37,2013-01-26 04:37:00,
2013-01-26 05:42:00,43.4,33.5,29.61,ENE,75,3.5,3.5,68,0.00,CLR,FEW,0.00,0.0,WeatherDisplay:10.37,2013-01-26 04:42:00,
2013-01-26 05:47:00,43.5,33.3,29.62,East,89,4.0,4.0,67,0.00,CLR,FEW,0.00,0.0,WeatherDisplay:10.37,2013-01-26 04:47:00,
2013-01-26 05:52:00,43.7,33.5,29.62,ENE,74,4.0,4.0,67,0.00,CLR,FEW,0.00,0.0,WeatherDisplay:10.37,2013-01-26 04:52:00,
2013-01-26 05:57:00,43.7,33.5,29.62,ENE,76,3.5,3.5,67,0.00,CLR,FEW,0.00,0.0,WeatherDisplay:10.37,2013-01-26 04:57:00,
2013-01-26 06:00:00,43.8,33.6,29.62,ESE,105,2.3,2.3,67,0.00,CLR,FEW,0.00,0.0,WeatherDisplay:10.37,2013-01-26 05:00:00,
2013-01-26 06:01:00,43.8,33.6,29.62,ESE,105,2.3,2.3,67,0.00,CLR,FEW,0.00,0.0,WeatherDisplay:10.37,2013-01-26 05:01:00,
2013-01-26 06:06:00,43.9,33.3,29.62,East,91,4.0,4.0,66,0.00,CLR,FEW,0.00,0.0,WeatherDisplay:10.37,2013-01-26 05:06:00,
2013-01-26 06:11:00,44.0,33.4,29.62,NE,52,6.9,6.9,66,0.00,CLR,FEW,0.00,0.0,WeatherDisplay:10.37,2013-01-26 05:11:00,
2013-01-26 06:16:00,44.2,33.6,29.62,ENE,68,8.0,8.0,66,0.00,CLR,FEW,0.00,0.0,WeatherDisplay:10.37,2013-01-26 05:16:00,
2013-01-26 06:21:00,44.2,33.6,29.63,NE,35,8.1,8.1,66,0.00,CLR,FEW,0.00,0.0,WeatherDisplay:10.37,2013-01-26 05:21:00,
2013-01-26 06:26:00,44.3,33.7,29.63,NE,50,6.9,6.9,66,0.00,CLR,FEW,0.00,0.0,WeatherDisplay:10.37,2013-01-26 05:26:00,
2013-01-26 06:31:00,44.3,33.3,29.63,ENE,57,11.5,11.5,65,0.00,CLR,FEW,0.00,0.0,WeatherDisplay:10.37,2013-01-26 05:31:00,
2013-01-26 06:36:00,44.3,33.3,29.63,NNE,33,5.8,5.8,65,0.00,CLR,FEW,0.00,0.0,WeatherDisplay:10.37,2013-01-26 05:36:00,
2013-01-26 06:41:00,44.4,33.4,29.63,NNE,33,1.2,1.2,65,0.00,CLR,FEW,0.00,0.0,WeatherDisplay:10.37,2013-01-26 05:41:00,
2013-01-26 06:46:00,44.3,33.3,29.63,NNE,33,3.5,3.5,65,0.00,CLR,FEW,0.00,0.0,WeatherDisplay:10.37,2013-01-26 05:46:00,
2013-01-26 06:51:00,44.2,33.2,29.63,NE,53,9.2,9.2,65,0.00,CLR,FEW,0.00,0.0,WeatherDisplay:10.37,2013-01-26 05:51:00,
2013-01-26 06:56:00,44.3,33.3,29.63,NE,37,10.4,10.4,65,0.00,CLR,FEW,0.00,0.0,WeatherDisplay:10.37,2013-01-26 05:56:00,
2013-01-26 07:01:00,44.3,33.3,29.63,NE,43,12.7,12.7,65,0.00,OVC,FEW,0.00,0.0,WeatherDisplay:10.37,2013-01-26 06:01:00,
2013-01-26 07:06:00,44.4,33.4,29.63,ENE,70,9.2,9.2,65,0.00,OVC,FEW,0.00,0.0,WeatherDisplay:10.37,2013-01-26 06:06:00,
2013-01-26 07:11:00,44.5,33.1,29.64,NE,56,10.0,10.0,64,0.00,OVC,FEW,0.00,0.0,WeatherDisplay:10.37,2013-01-26 06:11:00,
2013-01-26 07:16:00,44.6,33.2,29.64,NE,48,11.5,11.5,64,0.00,OVC,FEW,0.00,0.0,WeatherDisplay:10.37,2013-01-26 06:16:00,
2013-01-26 07:21:00,44.6,32.8,29.64,NE,42,12.7,12.7,63,0.00,OVC,FEW,0.00,0.0,WeatherDisplay:10.37,2013-01-26 06:21:00,
2013-01-26 07:26:00,44.7,33.3,29.64,ENE,73,10.4,10.4,64,0.00,OVC,FEW,0.00,0.0,WeatherDisplay:10.37,2013-01-26 06:26:00,
2013-01-26 07:31:00,44.6,33.2,29.64,ENE,65,8.1,8.1,64,0.00,OVC,FEW,0.00,0.0,WeatherDisplay:10.37,2013-01-26 06:31:00,
2013-01-26 07:36:00,44.6,32.8,29.64,ENE,65,11.5,11.5,63,0.00,OVC,FEW,0.00,0.0,WeatherDisplay:10.37,2013-01-26 06:36:00,
2013-01-26 07:41:00,44.6,32.4,29.64,ENE,58,12.7,12.7,62,0.00,OVC,FEW,0.00,0.0,WeatherDisplay:10.37,2013-01-26 06:41:00,
2013-01-26 07:46:00,44.6,32.4,29.64,ENE,59,11.5,11.5,62,0.00,OVC,FEW,0.00,0.0,WeatherDisplay:10.37,2013-01-26 06:46:00,
2013-01-26 07:51:00,44.5,32.3,29.64,NNE,25,10.4,10.4,62,0.00,OVC,FEW,0.00,0.0,WeatherDisplay:10.37,2013-01-26 06:51:00,
2013-01-26 07:56:00,44.5,31.9,29.65,NE,44,8.1,8.1,61,0.00,OVC,FEW,0.00,0.0,WeatherDisplay:10.37,2013-01-26 06:56:00,
2013-01-26 08:01:00,44.5,32.3,29.65,East,80,11.5,11.5,62,0.00,OVC,FEW,0.00,0.0,WeatherDisplay:10.37,2013-01-26 07:01:00,
2013-01-26 08:06:00,44.5,32.3,29.65,NE,40,13.8,13.8,62,0.00,OVC,FEW,0.00,0.0,WeatherDisplay:10.37,2013-01-26 07:06:00,
2013-01-26 08:11:00,44.4,31.8,29.65,NE,54,13.8,13.8,61,0.00,OVC,FEW,0.00,0.0,WeatherDisplay:10.37,2013-01-26 07:11:00,
2013-01-26 08:16:00,44.4,31.8,29.65,NNE,17,11.5,11.5,61,0.00,OVC,FEW,0.00,0.0,WeatherDisplay:10.37,2013-01-26 07:16:00,
2013-01-26 08:21:00,44.4,31.8,29.65,NE,52,12.7,12.7,61,0.00,OVC,FEW,0.00,0.0,WeatherDisplay:10.37,2013-01-26 07:21:00,
2013-01-26 08:26:00,44.4,31.8,29.65,ENE,61,12.7,12.7,61,0.00,OVC,FEW,0.00,0.0,WeatherDisplay:10.37,2013-01-26 07:26:00,
2013-01-26 08:31:00,44.3,31.7,29.65,ENE,65,11.5,11.5,61,0.00,OVC,FEW,0.00,0.0,WeatherDisplay:10.37,2013-01-26 07:31:00,
2013-01-26 08:36:00,44.4,31.8,29.65,NE,44,11.5,11.5,61,0.00,OVC,FEW,0.00,0.0,WeatherDisplay:10.37,2013-01-26 07:36:00,
2013-01-26 08:41:00,44.3,31.7,29.65,NNE,25,11.0,11.0,61,0.00,OVC,FEW,0.00,0.0,WeatherDisplay:10.37,2013-01-26 07:41:00,
2013-01-26 08:46:00,44.3,31.7,29.65,NE,41,10.4,10.4,61,0.00,OVC,FEW,0.00,0.0,WeatherDisplay:10.37,2013-01-26 07:46:00,
2013-01-26 08:51:00,44.4,32.2,29.65,NE,52,13.8,13.8,62,0.00,OVC,FEW,0.00,0.0,WeatherDisplay:10.37,2013-01-26 07:51:00,
2013-01-26 08:56:00,44.6,32.4,29.66,NE,49,12.7,12.7,62,0.00,OVC,FEW,0.00,0.0,WeatherDisplay:10.37,2013-01-26 07:56:00,
2013-01-26 09:01:00,44.8,32.6,29.65,NNE,33,12.7,12.7,62,0.00,OVC,FEW,0.00,0.0,WeatherDisplay:10.37,2013-01-26 08:01:00,
2013-01-26 09:06:00,44.7,32.5,29.65,East,96,15.0,15.0,62,0.00,OVC,FEW,0.00,0.0,WeatherDisplay:10.37,2013-01-26 08:06:00,
2013-01-26 09:11:00,44.8,33.0,29.65,ENE,64,13.8,13.8,63,0.00,OVC,FEW,0.00,0.0,WeatherDisplay:10.37,2013-01-26 08:11:00,
2013-01-26 09:16:00,44.8,33.0,29.65,ENE,73,12.7,12.7,63,0.00,OVC,FEW,0.00,0.0,WeatherDisplay:10.37,2013-01-26 08:16:00,
2013-01-26 09:21:00,45.0,33.5,29.66,ENE,61,6.9,6.9,64,0.00,OVC,FEW,0.00,0.0,WeatherDisplay:10.37,2013-01-26 08:21:00,
2013-01-26 09:26:00,45.1,33.6,29.66,ENE,61,3.5,3.5,64,0.00,OVC,FEW,0.00,0.0,WeatherDisplay:10.37,2013-01-26 08:26:00,
2013-01-26 09:31:00,45.1,33.2,29.66,ENE,73,3.0,3.0,63,0.00,OVC,FEW,0.00,0.0,WeatherDisplay:10.37,2013-01-26 08:31:00,
2013-01-26 09:36:00,45.7,33.4,29.66,East,83,2.3,2.3,62,0.00,OVC,FEW,0.00,0.0,WeatherDisplay:10.37,2013-01-26 08:36:00,
2013-01-26 09:41:00,46.1,33.4,29.67,East,83,2.3,2.3,61,0.00,OVC,FEW,0.00,0.0,WeatherDisplay:10.37,2013-01-26 08:41:00,
2013-01-26 09:46:00,46.5,33.8,29.67,NE,53,5.8,5.8,61,0.00,OVC,FEW,0.00,0.0,WeatherDisplay:10.37,2013-01-26 08:46:00,
2013-01-26 09:51:00,46.6,33.9,29.67,NNE,25,7.0,7.0,61,0.00,OVC,FEW,0.00,0.0,WeatherDisplay:10.37,2013-01-26 08:51:00,
2013-01-26 09:56:00,46.6,33.9,29.68,NE,48,6.9,6.9,61,0.00,OVC,FEW,0.00,0.0,WeatherDisplay:10.37,2013-01-26 08:56:00,
2013-01-26 10:01:00,46.5,33.8,29.68,ENE,59,7.0,7.0,61,0.00,OVC,FEW,0.00,0.0,WeatherDisplay:10.37,2013-01-26 09:01:00,
2013-01-26 10:06:00,46.5,34.2,29.68,NNE,30,7.0,7.0,62,0.00,OVC,FEW,0.00,0.0,WeatherDisplay:10.37,2013-01-26 09:06:00,
2013-01-26 10:11:00,46.5,34.2,29.68,NE,42,5.8,5.8,62,0.00,OVC,FEW,0.00,0.0,WeatherDisplay:10.37,2013-01-26 09:11:00,
2013-01-26 10:16:00,46.5,34.2,29.68,NNE,33,12.7,12.7,62,0.00,OVC,FEW,0.00,0.0,WeatherDisplay:10.37,2013-01-26 09:16:00,
2013-01-26 10:21:00,46.8,34.5,29.68,North,9,4.6,4.6,62,0.00,OVC,FEW,0.00,0.0,WeatherDisplay:10.37,2013-01-26 09:21:00,
2013-01-26 10:26:00,47.0,34.6,29.68,NE,56,8.1,8.1,62,0.00,OVC,FEW,0.00,0.0,WeatherDisplay:10.37,2013-01-26 09:26:00,
2013-01-26 10:31:00,47.1,35.1,29.68,NE,44,5.8,5.8,63,0.00,OVC,FEW,0.00,0.0,WeatherDisplay:10.37,2013-01-26 09:31:00,
2013-01-26 10:36:00,47.3,34.9,29.69,NE,48,8.1,8.1,62,0.00,OVC,FEW,0.00,0.0,WeatherDisplay:10.37,2013-01-26 09:36:00,
2013-01-26 10:41:00,47.5,35.1,29.69,NE,56,8.1,8.1,62,0.00,OVC,FEW,0.00,0.0,WeatherDisplay:10.37,2013-01-26 09:41:00,
2013-01-26 10:46:00,47.7,35.3,29.69,North,9,6.9,6.9,62,0.00,OVC,FEW,0.00,0.0,WeatherDisplay:10.37,2013-01-26 09:46:00,
2013-01-26 10:51:00,47.7,35.3,29.69,NE,43,5.8,5.8,62,0.00,OVC,FEW,0.00,0.0,WeatherDisplay:10.37,2013-01-26 09:51:00,
2013-01-26 10:56:00,47.8,35.4,29.69,NE,51,6.0,6.0,62,0.00,OVC,FEW,0.00,0.0,WeatherDisplay:10.37,2013-01-26 09:56:00,
2013-01-26 11:01:00,47.9,35.5,29.69,NNE,33,11.5,11.5,62,0.00,OVC,FEW,0.00,0.0,WeatherDisplay:10.37,2013-01-26 10:01:00,
2013-01-26 11:06:00,48.0,35.6,29.69,ENE,69,6.0,6.0,62,0.00,OVC,FEW,0.00,0.0,WeatherDisplay:10.37,2013-01-26 10:06:00,
2013-01-26 11:11:00,48.1,35.7,29.69,ENE,62,11.5,11.5,62,0.00,OVC,FEW,0.00,0.0,WeatherDisplay:10.37,2013-01-26 10:11:00,
2013-01-26 11:16:00,48.1,35.7,29.69,ENE,66,11.5,11.5,62,0.00,OVC,FEW,0.00,0.0,WeatherDisplay:10.37,2013-01-26 10:16:00,
2013-01-26 11:21:00,48.0,35.6,29.69,NE,49,11.5,11.5,62,0.00,OVC,FEW,0.00,0.0,WeatherDisplay:10.37,2013-01-26 10:21:00,
2013-01-26 11:26:00,47.9,35.5,29.69,NE,49,12.7,12.7,62,0.00,OVC,FEW,0.00,0.0,WeatherDisplay:10.37,2013-01-26 10:26:00,
2013-01-26 11:31:00,47.5,35.1,29.69,NE,36,11.5,11.5,62,0.00,OVC,FEW,0.00,0.0,WeatherDisplay:10.37,2013-01-26 10:31:00,
2013-01-26 11:36:00,47.3,34.9,29.69,East,84,9.2,9.2,62,0.00,OVC,FEW,0.00,0.0,WeatherDisplay:10.37,2013-01-26 10:36:00,
2013-01-26 11:41:00,47.1,35.1,29.69,NE,40,9.2,9.2,63,0.00,OVC,FEW,0.00,0.0,WeatherDisplay:10.37,2013-01-26 10:41:00,
2013-01-26 11:46:00,47.0,35.0,29.69,ENE,73,11.5,11.5,63,0.00,OVC,FEW,0.00,0.0,WeatherDisplay:10.37,2013-01-26 10:46:00,
2013-01-26 11:51:00,47.0,35.0,29.69,ENE,69,6.9,6.9,63,0.00,OVC,FEW,0.00,0.0,WeatherDisplay:10.37,2013-01-26 10:51:00,
2013-01-26 11:56:00,47.0,34.6,29.69,NNE,32,6.9,6.9,62,0.00,OVC,FEW,0.00,0.0,WeatherDisplay:10.37,2013-01-26 10:56:00,
2013-01-26 12:01:00,47.0,34.6,29.69,NE,43,4.6,4.6,62,0.00,OVC,FEW,0.00,0.0,WeatherDisplay:10.37,2013-01-26 11:01:00,
2013-01-26 12:06:00,47.0,34.2,29.69,NE,36,6.9,6.9,61,0.00,OVC,FEW,0.00,0.0,WeatherDisplay:10.37,2013-01-26 11:06:00,
2013-01-26 12:11:00,46.9,34.1,29.69,NNE,17,5.8,5.8,61,0.00,OVC,FEW,0.00,0.0,WeatherDisplay:10.37,2013-01-26 11:11:00,
2013-01-26 12:16:00,47.0,34.2,29.69,NE,34,4.6,4.6,61,0.00,OVC,FEW,0.00,0.0,WeatherDisplay:10.37,2013-01-26 11:16:00,
2013-01-26 12:21:00,47.1,34.7,29.69,NNE,18,5.0,5.0,62,0.00,OVC,FEW,0.00,0.0,WeatherDisplay:10.37,2013-01-26 11:21:00,
2013-01-26 12:26:00,47.2,34.8,29.69,NNE,19,4.0,4.0,62,0.00,OVC,FEW,0.00,0.0,WeatherDisplay:10.37,2013-01-26 11:26:00,
2013-01-26 12:31:00,47.2,34.4,29.69,ENE,57,8.1,8.1,61,0.00,OVC,FEW,0.00,0.0,WeatherDisplay:10.37,2013-01-26 11:31:00,
2013-01-26 12:36:00,47.3,34.5,29.69,NNE,22,3.5,3.5,61,0.00,OVC,FEW,0.00,0.0,WeatherDisplay:10.37,2013-01-26 11:36:00,
2013-01-26 12:41:00,47.3,34.5,29.69,NE,36,3.5,3.5,61,0.00,OVC,FEW,0.00,0.0,WeatherDisplay:10.37,2013-01-26 11:41:00,
2013-01-26 12:46:00,47.3,34.1,29.69,NE,34,4.6,4.6,60,0.00,OVC,FEW,0.00,0.0,WeatherDisplay:10.37,2013-01-26 11:46:00,
2013-01-26 12:51:00,47.3,34.5,29.69,NNE,23,4.6,4.6,61,0.00,OVC,FEW,0.00,0.0,WeatherDisplay:10.37,2013-01-26 11:51:00,
2013-01-26 12:56:00,47.4,34.6,29.69,NNE,26,6.0,6.0,61,0.00,OVC,FEW,0.00,0.0,WeatherDisplay:10.37,2013-01-26 11:56:00,
2013-01-26 13:01:00,47.4,34.6,29.69,NNE,17,5.0,5.0,61,0.00,OVC,FEW,0.00,0.0,WeatherDisplay:10.37,2013-01-26 12:01:00,
2013-01-26 13:06:00,47.5,34.7,29.69,NNE,22,2.3,2.3,61,0.00,OVC,FEW,0.00,0.0,WeatherDisplay:10.37,2013-01-26 12:06:00,
2013-01-26 13:11:00,47.4,34.6,29.69,NNE,31,6.0,6.0,61,0.00,OVC,FEW,0.00,0.0,WeatherDisplay:10.37,2013-01-26 12:11:00,
2013-01-26 13:16:00,47.3,34.5,29.69,NE,35,3.5,3.5,61,0.00,OVC,FEW,0.00,0.0,WeatherDisplay:10.37,2013-01-26 12:16:00,
2013-01-26 13:21:00,47.3,34.9,29.69,NE,35,4.0,4.0,62,0.00,OVC,FEW,0.00,0.0,WeatherDisplay:10.37,2013-01-26 12:21:00,
2013-01-26 13:26:00,47.2,34.8,29.69,NE,41,5.8,5.8,62,0.00,OVC,FEW,0.00,0.0,WeatherDisplay:10.37,2013-01-26 12:26:00,
2013-01-26 13:31:00,47.1,34.7,29.69,NE,40,2.0,6.0,62,0.00,OVC,FEW,0.00,0.0,WeatherDisplay:10.37,2013-01-26 12:31:00,
2013-01-26 13:36:00,47.1,34.7,29.69,North,5,3.5,3.5,62,0.00,OVC,FEW,0.00,0.0,WeatherDisplay:10.37,2013-01-26 12:36:00,
2013-01-26 13:41:00,47.1,34.7,29.69,NNE,22,2.0,7.0,62,0.00,OVC,FEW,0.00,0.0,WeatherDisplay:10.37,2013-01-26 12:41:00,
2013-01-26 13:46:00,47.1,34.7,29.69,NNE,33,3.5,3.5,62,0.00,OVC,FEW,0.00,0.0,WeatherDisplay:10.37,2013-01-26 12:46:00,
2013-01-26 13:51:00,47.1,35.1,29.69,North,5,5.8,5.8,63,0.00,OVC,FEW,0.00,0.0,WeatherDisplay:10.37,2013-01-26 12:51:00,
2013-01-26 13:56:00,47.1,34.7,29.69,NNE,21,3.5,3.5,62,0.00,OVC,FEW,0.00,0.0,WeatherDisplay:10.37,2013-01-26 12:56:00,
2013-01-26 14:01:00,47.1,35.1,29.69,North,5,3.5,3.5,63,0.00,OVC,FEW,0.00,0.0,WeatherDisplay:10.37,2013-01-26 13:01:00,
2013-01-26 14:06:00,47.1,35.1,29.69,NE,44,7.0,7.0,63,0.00,OVC,FEW,0.00,0.0,WeatherDisplay:10.37,2013-01-26 13:06:00,
2013-01-26 14:11:00,47.1,34.7,29.69,NNW,344,6.9,6.9,62,0.00,OVC,FEW,0.00,0.0,WeatherDisplay:10.37,2013-01-26 13:11:00,
2013-01-26 14:16:00,47.1,34.7,29.69,NNE,26,6.0,6.0,62,0.00,OVC,FEW,0.00,0.0,WeatherDisplay:10.37,2013-01-26 13:16:00,
2013-01-26 14:21:00,47.2,34.8,29.69,NE,36,4.0,4.0,62,0.00,OVC,FEW,0.00,0.0,WeatherDisplay:10.37,2013-01-26 13:21:00,
2013-01-26 14:26:00,47.3,34.9,29.69,NNE,22,5.8,5.8,62,0.00,OVC,FEW,0.00,0.0,WeatherDisplay:10.37,2013-01-26 13:26:00,
2013-01-26 14:31:00,47.3,34.9,29.69,NNE,17,5.0,5.0,62,0.00,OVC,FEW,0.00,0.0,WeatherDisplay:10.37,2013-01-26 13:31:00,
2013-01-26 14:36:00,47.3,34.5,29.69,NE,48,5.8,5.8,61,0.00,OVC,FEW,0.00,0.0,WeatherDisplay:10.37,2013-01-26 13:36:00,
2013-01-26 14:41:00,47.4,35.0,29.69,NNE,30,3.5,3.5,62,0.00,OVC,FEW,0.00,0.0,WeatherDisplay:10.37,2013-01-26 13:41:00,
2013-01-26 14:46:00,47.4,35.0,29.69,NNE,20,6.9,6.9,62,0.00,OVC,FEW,0.00,0.0,WeatherDisplay:10.37,2013-01-26 13:46:00,
2013-01-26 14:51:00,47.4,35.0,29.69,NE,48,4.6,4.6,62,0.00,OVC,FEW,0.00,0.0,WeatherDisplay:10.37,2013-01-26 13:51:00,
2013-01-26 14:56:00,47.3,34.9,29.69,NE,46,8.1,8.1,62,0.00,OVC,FEW,0.00,0.0,WeatherDisplay:10.37,2013-01-26 13:56:00,
2013-01-26 15:01:00,47.3,34.9,29.69,NE,55,9.2,9.2,62,0.00,OVC,FEW,0.00,0.0,WeatherDisplay:10.37,2013-01-26 14:01:00,
2013-01-26 15:06:00,47.2,34.8,29.69,NE,44,6.9,6.9,62,0.00,OVC,FEW,0.00,0.0,WeatherDisplay:10.37,2013-01-26 14:06:00,
2013-01-26 15:11:00,47.1,34.7,29.70,NE,37,5.0,5.0,62,0.00,OVC,FEW,0.00,0.0,WeatherDisplay:10.37,2013-01-26 14:11:00,
2013-01-26 15:16:00,47.1,34.7,29.70,NNE,17,6.0,6.0,62,0.00,OVC,FEW,0.00,0.0,WeatherDisplay:10.37,2013-01-26 14:16:00,
2013-01-26 15:21:00,47.2,35.2,29.70,NE,48,4.6,4.6,63,0.00,OVC,FEW,0.00,0.0,WeatherDisplay:10.37,2013-01-26 14:21:00,
2013-01-26 15:26:00,47.2,34.8,29.70,NNE,29,5.8,5.8,62,0.00,OVC,FEW,0.00,0.0,WeatherDisplay:10.37,2013-01-26 14:26:00,
2013-01-26 15:31:00,47.1,35.1,29.70,NE,35,4.6,4.6,63,0.00,OVC,FEW,0.00,0.0,WeatherDisplay:10.37,2013-01-26 14:31:00,
2013-01-26 15:36:00,47.1,35.1,29.70,NE,56,5.0,5.0,63,0.00,OVC,FEW,0.00,0.0,WeatherDisplay:10.37,2013-01-26 14:36:00,
2013-01-26 15:41:00,47.1,35.1,29.70,ENE,59,3.0,3.0,63,0.00,OVC,FEW,0.00,0.0,WeatherDisplay:10.37,2013-01-26 14:41:00,
2013-01-26 15:46:00,47.0,35.4,29.70,NNE,31,4.6,4.6,64,0.00,OVC,FEW,0.00,0.0,WeatherDisplay:10.37,2013-01-26 14:46:00,
2013-01-26 15:51:00,47.0,35.4,29.70,NNE,18,4.0,4.0,64,0.00,OVC,FEW,0.00,0.0,WeatherDisplay:10.37,2013-01-26 14:51:00,
2013-01-26 15:56:00,46.9,35.4,29.70,NE,44,3.5,3.5,64,0.00,OVC,FEW,0.00,0.0,WeatherDisplay:10.37,2013-01-26 14:56:00,
2013-01-26 16:01:00,46.8,35.3,29.70,NE,54,4.6,4.6,64,0.00,OVC,FEW,0.00,0.0,WeatherDisplay:10.37,2013-01-26 15:01:00,
2013-01-26 16:06:00,46.7,35.2,29.70,NNE,27,6.9,6.9,64,0.00,OVC,FEW,0.00,0.0,WeatherDisplay:10.37,2013-01-26 15:06:00,
2013-01-26 16:11:00,46.7,35.2,29.70,NE,38,5.8,5.8,64,0.00,OVC,FEW,0.00,0.0,WeatherDisplay:10.37,2013-01-26 15:11:00,
2013-01-26 16:17:00,46.7,35.6,29.70,NNE,26,4.6,4.6,65,0.00,OVC,FEW,0.00,0.0,WeatherDisplay:10.37,2013-01-26 15:17:00,
2013-01-26 16:22:00,46.7,35.6,29.70,ENE,64,3.5,3.5,65,0.00,OVC,FEW,0.00,0.0,WeatherDisplay:10.37,2013-01-26 15:22:00,
2013-01-26 16:27:00,46.6,35.5,29.71,NNE,30,4.6,4.6,65,0.00,OVC,FEW,0.00,0.0,WeatherDisplay:10.37,2013-01-26 15:27:00,
2013-01-26 16:32:00,46.6,35.5,29.71,ENE,70,8.1,8.1,65,0.00,OVC,FEW,0.00,0.0,WeatherDisplay:10.37,2013-01-26 15:32:00,
2013-01-26 16:37:00,46.5,35.0,29.71,NE,44,9.2,9.2,64,0.00,OVC,FEW,0.00,0.0,WeatherDisplay:10.37,2013-01-26 15:37:00,
2013-01-26 16:42:00,46.5,35.0,29.71,NE,51,5.8,5.8,64,0.00,OVC,FEW,0.00,0.0,WeatherDisplay:10.37,2013-01-26 15:42:00,
2013-01-26 16:47:00,46.5,35.0,29.71,NE,38,3.5,3.5,64,0.00,OVC,FEW,0.00,0.0,WeatherDisplay:10.37,2013-01-26 15:47:00,
2013-01-26 16:52:00,46.5,35.0,29.71,NNE,17,3.5,3.5,64,0.00,OVC,FEW,0.00,0.0,WeatherDisplay:10.37,2013-01-26 15:52:00,
2013-01-26 16:57:00,46.4,35.3,29.71,NE,43,3.5,3.5,65,0.00,OVC,FEW,0.00,0.0,WeatherDisplay:10.37,2013-01-26 15:57:00,
2013-01-26 17:02:00,46.4,34.9,29.71,NE,43,0.0,0.2,64,0.00,OVC,FEW,0.00,0.0,WeatherDisplay:10.37,2013-01-26 16:02:00,
2013-01-26 17:07:00,46.4,35.3,29.71,NE,43,1.2,1.2,65,0.00,OVC,FEW,0.00,0.0,WeatherDisplay:10.37,2013-01-26 16:07:00,
2013-01-26 17:12:00,46.3,35.2,29.72,NE,44,3.5,3.5,65,0.00,OVC,FEW,0.00,0.0,WeatherDisplay:10.37,2013-01-26 16:12:00,
2013-01-26 17:17:00,46.2,35.1,29.72,NE,44,0.0,0.0,65,0.00,OVC,FEW,0.00,0.0,WeatherDisplay:10.37,2013-01-26 16:17:00,
2013-01-26 17:22:00,46.2,34.7,29.72,NE,44,1.2,1.2,64,0.00,OVC,FEW,0.00,0.0,WeatherDisplay:10.37,2013-01-26 16:22:00,
2013-01-26 17:27:00,46.1,34.6,29.72,NE,44,0.0,0.0,64,0.00,OVC,FEW,0.00,0.0,WeatherDisplay:10.37,2013-01-26 16:27:00,
2013-01-26 17:32:00,46.1,34.6,29.72,NE,51,2.0,2.2,64,0.00,OVC,FEW,0.00,0.0,WeatherDisplay:10.37,2013-01-26 16:32:00,
2013-01-26 17:37:00,46.1,34.2,29.72,NE,51,2.3,2.3,63,0.00,OVC,FEW,0.00,0.0,WeatherDisplay:10.37,2013-01-26 16:37:00,
2013-01-26 17:42:00,46.2,34.7,29.73,NE,51,0.0,0.0,64,0.00,OVC,FEW,0.00,0.0,WeatherDisplay:10.37,2013-01-26 16:42:00,
2013-01-26 17:47:00,46.2,34.7,29.73,NE,50,2.0,2.0,64,0.00,CLR,FEW,0.00,0.0,WeatherDisplay:10.37,2013-01-26 16:47:00,
2013-01-26 17:52:00,46.2,35.1,29.73,NE,50,1.2,0.0,65,0.00,CLR,FEW,0.00,0.0,WeatherDisplay:10.37,2013-01-26 16:52:00,
2013-01-26 17:57:00,46.1,35.0,29.73,NNE,18,5.8,5.8,65,0.00,CLR,FEW,0.00,0.0,WeatherDisplay:10.37,2013-01-26 16:57:00,
2013-01-26 18:02:00,46.1,35.4,29.74,NE,35,3.0,3.0,66,0.00,CLR,FEW,0.00,0.0,WeatherDisplay:10.37,2013-01-26 17:02:00,
2013-01-26 18:07:00,46.0,35.3,29.74,NE,55,4.6,4.6,66,0.00,CLR,FEW,0.00,0.0,WeatherDisplay:10.37,2013-01-26 17:07:00,
2013-01-26 18:12:00,46.0,35.3,29.74,NE,54,5.8,5.8,66,0.00,CLR,FEW,0.00,0.0,WeatherDisplay:10.37,2013-01-26 17:12:00,
2013-01-26 18:17:00,45.9,35.2,29.74,NE,49,3.5,3.5,66,0.00,CLR,FEW,0.00,0.0,WeatherDisplay:10.37,2013-01-26 17:17:00,
2013-01-26 18:22:00,45.9,35.2,29.74,NE,38,1.2,1.2,66,0.00,CLR,FEW,0.00,0.0,WeatherDisplay:10.37,2013-01-26 17:22:00,
2013-01-26 18:27:00,45.8,35.1,29.75,NE,53,4.6,4.6,66,0.00,CLR,FEW,0.00,0.0,WeatherDisplay:10.37,2013-01-26 17:27:00,
2013-01-26 18:32:00,45.7,35.0,29.75,NNE,30,3.5,3.5,66,0.00,CLR,FEW,0.00,0.0,WeatherDisplay:10.37,2013-01-26 17:32:00,
2013-01-26 18:37:00,45.7,35.0,29.75,North,5,3.5,3.5,66,0.00,CLR,FEW,0.00,0.0,WeatherDisplay:10.37,2013-01-26 17:37:00,
2013-01-26 18:42:00,45.6,35.3,29.75,NE,39,5.8,5.8,67,0.00,CLR,FEW,0.00,0.0,WeatherDisplay:10.37,2013-01-26 17:42:00,
2013-01-26 18:47:00,45.6,35.3,29.76,NE,34,5.0,5.0,67,0.00,CLR,FEW,0.00,0.0,WeatherDisplay:10.37,2013-01-26 17:47:00,
2013-01-26 18:52:00,45.6,35.6,29.76,NNE,20,1.2,1.2,68,0.00,CLR,FEW,0.00,0.0,WeatherDisplay:10.37,2013-01-26 17:52:00,
2013-01-26 18:57:00,45.5,35.5,29.76,NE,40,1.2,1.2,68,0.00,CLR,FEW,0.00,0.0,WeatherDisplay:10.37,2013-01-26 17:57:00,
2013-01-26 19:02:00,45.4,35.5,29.76,NE,40,2.3,2.3,68,0.00,CLR,FEW,0.00,0.0,WeatherDisplay:10.37,2013-01-26 18:02:00,
2013-01-26 19:07:00,45.3,35.4,29.76,NE,40,1.2,0.0,68,0.00,CLR,FEW,0.00,0.0,WeatherDisplay:10.37,2013-01-26 18:07:00,
2013-01-26 19:12:00,45.2,35.3,29.76,NE,40,0.0,0.0,68,0.00,CLR,FEW,0.00,0.0,WeatherDisplay:10.37,2013-01-26 18:12:00,
2013-01-26 19:17:00,45.1,35.2,29.77,NE,40,1.2,0.0,68,0.00,CLR,FEW,0.00,0.0,WeatherDisplay:10.37,2013-01-26 18:17:00,
2013-01-26 19:22:00,45.1,35.2,29.77,NE,41,3.0,0.0,68,0.00,CLR,FEW,0.00,0.0,WeatherDisplay:10.37,2013-01-26 18:22:00,
2013-01-26 19:27:00,45.1,35.2,29.77,NE,36,3.5,3.5,68,0.00,CLR,FEW,0.00,0.0,WeatherDisplay:10.37,2013-01-26 18:27:00,
2013-01-26 19:32:00,45.1,35.5,29.77,North,10,7.0,7.0,69,0.00,CLR,FEW,0.00,0.0,WeatherDisplay:10.37,2013-01-26 18:32:00,
2013-01-26 19:37:00,45.0,35.1,29.77,NNE,18,9.2,9.2,68,0.00,CLR,FEW,0.00,0.0,WeatherDisplay:10.37,2013-01-26 18:37:00,
2013-01-26 19:42:00,45.1,35.2,29.78,NNE,13,9.2,9.2,68,0.00,CLR,FEW,0.00,0.0,WeatherDisplay:10.37,2013-01-26 18:42:00,
2013-01-26 19:47:00,45.1,34.8,29.78,East,88,11.5,11.5,67,0.00,CLR,FEW,0.00,0.0,WeatherDisplay:10.37,2013-01-26 18:47:00,
2013-01-26 19:52:00,45.1,34.8,29.78,NE,39,11.5,11.5,67,0.00,CLR,FEW,0.00,0.0,WeatherDisplay:10.37,2013-01-26 18:52:00,
2013-01-26 19:57:00,45.1,34.4,29.78,NNE,30,6.9,6.9,66,0.00,CLR,FEW,0.00,0.0,WeatherDisplay:10.37,2013-01-26 18:57:00,
2013-01-26 20:02:00,45.1,34.4,29.79,NE,44,5.0,5.0,66,0.00,CLR,FEW,0.00,0.0,WeatherDisplay:10.37,2013-01-26 19:02:00,
2013-01-26 20:07:00,45.0,34.3,29.79,ENE,67,11.5,11.5,66,0.00,CLR,FEW,0.00,0.0,WeatherDisplay:10.37,2013-01-26 19:07:00,
2013-01-26 20:12:00,45.1,34.4,29.79,NE,40,11.0,11.0,66,0.00,CLR,FEW,0.00,0.0,WeatherDisplay:10.37,2013-01-26 19:12:00,
2013-01-26 20:17:00,45.1,33.6,29.80,NNW,343,11.5,11.5,64,0.00,CLR,FEW,0.00,0.0,WeatherDisplay:10.37,2013-01-26 19:17:00,
2013-01-26 20:22:00,45.1,33.2,29.79,NE,47,12.7,12.7,63,0.00,CLR,FEW,0.00,0.0,WeatherDisplay:10.37,2013-01-26 19:22:00,
2013-01-26 20:27:00,45.1,33.2,29.80,ENE,63,11.5,11.5,63,0.00,CLR,FEW,0.00,0.0,WeatherDisplay:10.37,2013-01-26 19:27:00,
2013-01-26 20:32:00,45.0,32.8,29.80,NE,37,16.1,16.1,62,0.00,CLR,FEW,0.00,0.0,WeatherDisplay:10.37,2013-01-26 19:32:00,
2013-01-26 20:37:00,45.0,32.8,29.80,ENE,63,10.4,10.4,62,0.00,CLR,FEW,0.00,0.0,WeatherDisplay:10.37,2013-01-26 19:37:00,
2013-01-26 20:42:00,45.0,32.8,29.80,North,5,11.5,11.5,62,0.00,CLR,FEW,0.00,0.0,WeatherDisplay:10.37,2013-01-26 19:42:00,
2013-01-26 20:47:00,45.1,32.8,29.81,ENE,59,8.1,8.1,62,0.00,CLR,FEW,0.00,0.0,WeatherDisplay:10.37,2013-01-26 19:47:00,
2013-01-26 20:52:00,45.1,32.8,29.81,NNE,29,10.4,10.4,62,0.00,CLR,FEW,0.00,0.0,WeatherDisplay:10.37,2013-01-26 19:52:00,
2013-01-26 20:57:00,45.0,32.8,29.81,NE,45,11.5,11.5,62,0.00,CLR,FEW,0.00,0.0,WeatherDisplay:10.37,2013-01-26 19:57:00,
2013-01-26 21:02:00,45.0,33.2,29.81,NNE,21,6.9,6.9,63,0.00,CLR,FEW,0.00,0.0,WeatherDisplay:10.37,2013-01-26 20:02:00,
2013-01-26 21:07:00,45.0,33.2,29.81,NE,40,8.1,8.1,63,0.00,CLR,FEW,0.00,0.0,WeatherDisplay:10.37,2013-01-26 20:07:00,
2013-01-26 21:12:00,45.0,33.2,29.81,NNE,26,10.4,10.4,63,0.00,CLR,FEW,0.00,0.0,WeatherDisplay:10.37,2013-01-26 20:12:00,
2013-01-26 21:17:00,45.1,33.6,29.81,ENE,62,12.7,12.7,64,0.00,CLR,FEW,0.00,0.0,WeatherDisplay:10.37,2013-01-26 20:17:00,
2013-01-26 21:22:00,45.0,32.8,29.81,ENE,71,13.8,13.8,62,0.00,CLR,FEW,0.00,0.0,WeatherDisplay:10.37,2013-01-26 20:22:00,
2013-01-26 21:27:00,44.8,32.6,29.81,ENE,62,12.7,12.7,62,0.00,CLR,FEW,0.00,0.0,WeatherDisplay:10.37,2013-01-26 20:27:00,
2013-01-26 21:32:00,44.7,32.5,29.81,ENE,63,7.0,7.0,62,0.00,CLR,FEW,0.00,0.0,WeatherDisplay:10.37,2013-01-26 20:32:00,
2013-01-26 21:37:00,44.7,32.9,29.81,NE,43,10.0,10.0,63,0.00,CLR,FEW,0.00,0.0,WeatherDisplay:10.37,2013-01-26 20:37:00,
2013-01-26 21:42:00,44.8,33.0,29.81,ENE,61,12.7,12.7,63,0.00,CLR,FEW,0.00,0.0,WeatherDisplay:10.37,2013-01-26 20:42:00,
2013-01-26 21:47:00,44.8,33.0,29.82,NE,49,6.0,6.0,63,0.00,CLR,FEW,0.00,0.0,WeatherDisplay:10.37,2013-01-26 20:47:00,
2013-01-26 21:52:00,44.8,33.4,29.82,ENE,57,9.2,9.2,64,0.00,CLR,FEW,0.00,0.0,WeatherDisplay:10.37,2013-01-26 20:52:00,
2013-01-26 21:57:00,44.9,33.5,29.82,ENE,58,11.5,11.5,64,0.00,CLR,FEW,0.00,0.0,WeatherDisplay:10.37,2013-01-26 20:57:00,
2013-01-26 22:02:00,44.9,33.5,29.82,ENE,71,8.1,8.1,64,0.00,CLR,FEW,0.00,0.0,WeatherDisplay:10.37,2013-01-26 21:02:00,
2013-01-26 22:07:00,44.9,33.5,29.82,ENE,61,6.9,6.9,64,0.00,CLR,FEW,0.00,0.0,WeatherDisplay:10.37,2013-01-26 21:07:00,
2013-01-26 22:12:00,44.9,33.5,29.83,NE,37,3.5,3.5,64,0.00,CLR,FEW,0.00,0.0,WeatherDisplay:10.37,2013-01-26 21:12:00,
2013-01-26 22:17:00,44.9,33.8,29.83,NE,44,5.8,5.8,65,0.00,CLR,FEW,0.00,0.0,WeatherDisplay:10.37,2013-01-26 21:17:00,
2013-01-26 22:22:00,44.9,33.8,29.83,NE,37,9.2,9.2,65,0.00,CLR,FEW,0.00,0.0,WeatherDisplay:10.37,2013-01-26 21:22:00,
2013-01-26 22:27:00,44.9,34.2,29.83,ENE,75,8.1,8.1,66,0.00,CLR,FEW,0.00,0.0,WeatherDisplay:10.37,2013-01-26 21:27:00,
2013-01-26 22:32:00,44.8,34.1,29.83,East,80,11.5,11.5,66,0.00,CLR,FEW,0.00,0.0,WeatherDisplay:10.37,2013-01-26 21:32:00,
2013-01-26 22:37:00,44.8,33.7,29.83,East,82,11.5,11.5,65,0.00,CLR,FEW,0.00,0.0,WeatherDisplay:10.37,2013-01-26 21:37:00,
2013-01-26 22:42:00,44.8,33.7,29.83,ENE,58,8.1,8.1,65,0.00,CLR,FEW,0.00,0.0,WeatherDisplay:10.37,2013-01-26 21:42:00,
2013-01-26 22:47:00,44.7,33.3,29.83,NE,55,12.7,12.7,64,0.00,CLR,FEW,0.00,0.0,WeatherDisplay:10.37,2013-01-26 21:47:00,
2013-01-26 22:52:00,44.6,32.8,29.83,ENE,70,11.5,11.5,63,0.00,CLR,FEW,0.00,0.0,WeatherDisplay:10.37,2013-01-26 21:52:00,
2013-01-26 22:57:00,44.4,33.0,29.83,NNW,340,5.8,5.8,64,0.00,CLR,FEW,0.00,0.0,WeatherDisplay:10.37,2013-01-26 21:57:00,
2013-01-26 23:02:00,44.4,32.6,29.83,ENE,60,11.5,11.5,63,0.00,CLR,FEW,0.00,0.0,WeatherDisplay:10.37,2013-01-26 22:02:00,
2013-01-26 23:07:00,44.4,33.0,29.84,NE,47,5.8,5.8,64,0.00,CLR,FEW,0.00,0.0,WeatherDisplay:10.37,2013-01-26 22:07:00,
2013-01-26 23:12:00,44.4,33.0,29.84,ENE,62,5.8,5.8,64,0.00,CLR,FEW,0.00,0.0,WeatherDisplay:10.37,2013-01-26 22:12:00,
2013-01-26 23:17:00,44.3,32.5,29.83,East,89,3.5,3.5,63,0.00,CLR,FEW,0.00,0.0,WeatherDisplay:10.37,2013-01-26 22:17:00,
2013-01-26 23:22:00,44.2,32.4,29.84,East,89,3.5,3.5,63,0.00,CLR,FEW,0.00,0.0,WeatherDisplay:10.37,2013-01-26 22:22:00,
2013-01-26 23:27:00,44.2,32.0,29.84,East,80,4.0,4.0,62,0.00,CLR,FEW,0.00,0.0,WeatherDisplay:10.37,2013-01-26 22:27:00,
2013-01-26 23:32:00,44.3,32.5,29.83,NE,46,6.9,6.9,63,0.00,CLR,FEW,0.00,0.0,WeatherDisplay:10.37,2013-01-26 22:32:00,
2013-01-26 23:37:00,44.3,32.5,29.84,ENE,70,4.0,4.0,63,0.00,CLR,FEW,0.00,0.0,WeatherDisplay:10.37,2013-01-26 22:37:00,
2013-01-26 23:42:00,44.3,33.3,29.84,ENE,70,8.1,8.1,65,0.00,CLR,FEW,0.00,0.0,WeatherDisplay:10.37,2013-01-26 22:42:00,
2013-01-26 23:47:00,44.4,33.7,29.84,NE,55,4.6,4.6,66,0.00,CLR,FEW,0.00,0.0,WeatherDisplay:10.37,2013-01-26 22:47:00,
2013-01-26 23:52:00,44.2,33.6,29.84,ENE,76,6.9,6.9,66,0.00,CLR,FEW,0.00,0.0,WeatherDisplay:10.37,2013-01-26 22:52:00,
2013-01-26 23:57:00,44.1,33.5,29.84,ENE,57,3.5,3.5,66,0.00,CLR,FEW,0.00,0.0,WeatherDisplay:10.37,2013-01-26 22:57:00,